sensor_id;sensor_type;location;lat;lon;timestamp;temperature;humidity
15717;DHT22;7960;50.908;4.204;2022-07-23T00:01:37;17.40;99.90
15717;DHT22;7960;50.908;4.204;2022-07-23T00:04:06;17.40;99.90
15717;DHT22;7960;50.908;4.204;2022-07-23T00:06:33;17.30;99.90
15717;DHT22;7960;50.908;4.204;2022-07-23T00:09:00;17.30;99.90
15717;DHT22;7960;50.908;4.204;2022-07-23T00:11:27;17.20;99.90
15717;DHT22;7960;50.908;4.204;2022-07-23T00:13:54;17.30;99.90
15717;DHT22;7960;50.908;4.204;2022-07-23T00:16:24;17.20;99.90
15717;DHT22;7960;50.908;4.204;2022-07-23T00:18:51;17.30;99.90
15717;DHT22;7960;50.908;4.204;2022-07-23T00:21:18;17.30;99.90
15717;DHT22;7960;50.908;4.204;2022-07-23T00:23:45;17.20;99.90
15717;DHT22;7960;50.908;4.204;2022-07-23T00:26:11;17.30;99.90
15717;DHT22;7960;50.908;4.204;2022-07-23T00:28:38;17.20;99.90
15717;DHT22;7960;50.908;4.204;2022-07-23T00:31:07;17.20;99.90
15717;DHT22;7960;50.908;4.204;2022-07-23T00:33:35;17.20;99.90
15717;DHT22;7960;50.908;4.204;2022-07-23T00:36:02;17.10;99.90
15717;DHT22;7960;50.908;4.204;2022-07-23T00:38:30;17.00;99.90
15717;DHT22;7960;50.908;4.204;2022-07-23T00:40:56;17.10;99.90
15717;DHT22;7960;50.908;4.204;2022-07-23T00:43:24;17.00;99.90
15717;DHT22;7960;50.908;4.204;2022-07-23T00:45:51;17.00;99.90
15717;DHT22;7960;50.908;4.204;2022-07-23T00:48:18;17.00;99.90
15717;DHT22;7960;50.908;4.204;2022-07-23T00:50:47;17.00;99.90
15717;DHT22;7960;50.908;4.204;2022-07-23T00:53:14;17.10;99.90
15717;DHT22;7960;50.908;4.204;2022-07-23T00:55:41;16.90;99.90
15717;DHT22;7960;50.908;4.204;2022-07-23T00:58:09;16.80;99.90
15717;DHT22;7960;50.908;4.204;2022-07-23T01:00:36;16.90;99.90
15717;DHT22;7960;50.908;4.204;2022-07-23T01:03:03;16.90;99.90
15717;DHT22;7960;50.908;4.204;2022-07-23T01:05:30;16.90;99.90
15717;DHT22;7960;50.908;4.204;2022-07-23T01:07:58;16.80;99.90
15717;DHT22;7960;50.908;4.204;2022-07-23T01:10:25;16.80;99.90
15717;DHT22;7960;50.908;4.204;2022-07-23T01:13:00;16.80;99.90
15717;DHT22;7960;50.908;4.204;2022-07-23T01:15:28;16.80;99.90
15717;DHT22;7960;50.908;4.204;2022-07-23T01:17:56;16.80;99.90
15717;DHT22;7960;50.908;4.204;2022-07-23T01:20:22;16.80;99.90
15717;DHT22;7960;50.908;4.204;2022-07-23T01:22:52;16.70;99.90
15717;DHT22;7960;50.908;4.204;2022-07-23T01:25:19;16.70;99.90
15717;DHT22;7960;50.908;4.204;2022-07-23T01:27:47;16.60;99.90
15717;DHT22;7960;50.908;4.204;2022-07-23T01:30:14;16.60;99.90
15717;DHT22;7960;50.908;4.204;2022-07-23T01:32:41;16.80;99.90
15717;DHT22;7960;50.908;4.204;2022-07-23T01:35:09;16.70;99.90
15717;DHT22;7960;50.908;4.204;2022-07-23T01:37:36;16.70;99.90
15717;DHT22;7960;50.908;4.204;2022-07-23T01:40:06;16.80;99.90
15717;DHT22;7960;50.908;4.204;2022-07-23T01:42:33;16.70;99.90
15717;DHT22;7960;50.908;4.204;2022-07-23T01:45:02;16.60;99.90
15717;DHT22;7960;50.908;4.204;2022-07-23T01:47:29;16.60;99.90
15717;DHT22;7960;50.908;4.204;2022-07-23T01:49:56;16.70;99.90
15717;DHT22;7960;50.908;4.204;2022-07-23T01:52:23;16.60;99.90
15717;DHT22;7960;50.908;4.204;2022-07-23T01:54:50;16.60;99.90
15717;DHT22;7960;50.908;4.204;2022-07-23T01:57:18;16.40;99.90
15717;DHT22;7960;50.908;4.204;2022-07-23T01:59:45;16.50;99.90
15717;DHT22;7960;50.908;4.204;2022-07-23T02:02:12;16.50;99.90
15717;DHT22;7960;50.908;4.204;2022-07-23T02:04:39;16.50;99.90
15717;DHT22;7960;50.908;4.204;2022-07-23T02:07:06;16.40;99.90
15717;DHT22;7960;50.908;4.204;2022-07-23T02:09:33;16.50;99.90
15717;DHT22;7960;50.908;4.204;2022-07-23T02:12:00;16.40;99.90
15717;DHT22;7960;50.908;4.204;2022-07-23T02:14:28;16.40;99.90
15717;DHT22;7960;50.908;4.204;2022-07-23T02:16:55;16.30;99.90
15717;DHT22;7960;50.908;4.204;2022-07-23T02:19:22;16.40;99.90
15717;DHT22;7960;50.908;4.204;2022-07-23T02:21:49;16.40;99.90
15717;DHT22;7960;50.908;4.204;2022-07-23T02:24:16;16.30;99.90
15717;DHT22;7960;50.908;4.204;2022-07-23T02:26:43;16.30;99.90
15717;DHT22;7960;50.908;4.204;2022-07-23T02:29:10;16.10;99.90
15717;DHT22;7960;50.908;4.204;2022-07-23T02:31:38;16.00;99.90
15717;DHT22;7960;50.908;4.204;2022-07-23T02:34:06;16.10;99.90
15717;DHT22;7960;50.908;4.204;2022-07-23T02:36:37;16.20;99.90
15717;DHT22;7960;50.908;4.204;2022-07-23T02:39:03;16.20;99.90
15717;DHT22;7960;50.908;4.204;2022-07-23T02:41:30;16.30;99.90
15717;DHT22;7960;50.908;4.204;2022-07-23T02:43:57;16.30;99.90
15717;DHT22;7960;50.908;4.204;2022-07-23T02:46:24;16.30;99.90
15717;DHT22;7960;50.908;4.204;2022-07-23T02:48:52;16.20;99.90
15717;DHT22;7960;50.908;4.204;2022-07-23T02:51:19;16.10;99.90
15717;DHT22;7960;50.908;4.204;2022-07-23T02:53:46;16.20;99.90
15717;DHT22;7960;50.908;4.204;2022-07-23T02:56:13;16.20;99.90
15717;DHT22;7960;50.908;4.204;2022-07-23T02:58:40;16.20;99.90
15717;DHT22;7960;50.908;4.204;2022-07-23T03:01:06;16.20;99.90
15717;DHT22;7960;50.908;4.204;2022-07-23T03:03:33;16.10;99.90
15717;DHT22;7960;50.908;4.204;2022-07-23T03:06:02;16.20;99.90
15717;DHT22;7960;50.908;4.204;2022-07-23T03:08:29;16.20;99.90
15717;DHT22;7960;50.908;4.204;2022-07-23T03:10:56;16.10;99.90
15717;DHT22;7960;50.908;4.204;2022-07-23T03:13:22;16.00;99.90
15717;DHT22;7960;50.908;4.204;2022-07-23T03:15:49;16.10;99.90
15717;DHT22;7960;50.908;4.204;2022-07-23T03:18:17;16.00;99.90
15717;DHT22;7960;50.908;4.204;2022-07-23T03:20:43;16.10;99.90
15717;DHT22;7960;50.908;4.204;2022-07-23T03:23:12;16.20;99.90
15717;DHT22;7960;50.908;4.204;2022-07-23T03:25:38;16.30;99.90
15717;DHT22;7960;50.908;4.204;2022-07-23T03:28:05;16.30;99.90
15717;DHT22;7960;50.908;4.204;2022-07-23T03:30:34;16.30;99.90
15717;DHT22;7960;50.908;4.204;2022-07-23T03:33:01;16.20;99.90
15717;DHT22;7960;50.908;4.204;2022-07-23T03:35:27;16.20;99.90
15717;DHT22;7960;50.908;4.204;2022-07-23T03:37:54;16.40;99.90
15717;DHT22;7960;50.908;4.204;2022-07-23T03:40:23;16.30;99.90
15717;DHT22;7960;50.908;4.204;2022-07-23T03:42:49;16.20;99.90
15717;DHT22;7960;50.908;4.204;2022-07-23T03:45:16;16.10;99.90
15717;DHT22;7960;50.908;4.204;2022-07-23T03:47:43;16.10;99.90
15717;DHT22;7960;50.908;4.204;2022-07-23T03:50:10;16.10;99.90
15717;DHT22;7960;50.908;4.204;2022-07-23T03:52:37;16.30;99.90
15717;DHT22;7960;50.908;4.204;2022-07-23T03:55:06;16.20;99.90
15717;DHT22;7960;50.908;4.204;2022-07-23T03:57:34;16.00;99.90
15717;DHT22;7960;50.908;4.204;2022-07-23T04:00:02;16.10;99.90
15717;DHT22;7960;50.908;4.204;2022-07-23T04:02:30;15.90;99.90
15717;DHT22;7960;50.908;4.204;2022-07-23T04:04:57;16.10;99.90
15717;DHT22;7960;50.908;4.204;2022-07-23T04:07:25;16.10;99.90
15717;DHT22;7960;50.908;4.204;2022-07-23T04:09:52;16.00;99.90
15717;DHT22;7960;50.908;4.204;2022-07-23T04:12:19;15.90;99.90
15717;DHT22;7960;50.908;4.204;2022-07-23T04:14:48;16.10;99.90
15717;DHT22;7960;50.908;4.204;2022-07-23T04:17:15;16.00;99.90
15717;DHT22;7960;50.908;4.204;2022-07-23T04:19:42;16.00;99.90
15717;DHT22;7960;50.908;4.204;2022-07-23T04:22:10;16.10;99.90
15717;DHT22;7960;50.908;4.204;2022-07-23T04:24:37;16.10;99.90
15717;DHT22;7960;50.908;4.204;2022-07-23T04:27:05;16.20;99.90
15717;DHT22;7960;50.908;4.204;2022-07-23T04:29:32;15.90;99.90
15717;DHT22;7960;50.908;4.204;2022-07-23T04:32:00;15.90;99.90
15717;DHT22;7960;50.908;4.204;2022-07-23T04:34:27;16.00;99.90
15717;DHT22;7960;50.908;4.204;2022-07-23T04:36:54;16.10;99.90
15717;DHT22;7960;50.908;4.204;2022-07-23T04:39:21;16.10;99.90
15717;DHT22;7960;50.908;4.204;2022-07-23T04:41:48;16.00;99.90
15717;DHT22;7960;50.908;4.204;2022-07-23T04:44:15;16.10;99.90
15717;DHT22;7960;50.908;4.204;2022-07-23T04:46:42;15.90;99.90
15717;DHT22;7960;50.908;4.204;2022-07-23T04:49:10;15.90;99.90
15717;DHT22;7960;50.908;4.204;2022-07-23T04:51:37;16.00;99.90
15717;DHT22;7960;50.908;4.204;2022-07-23T04:54:04;16.00;99.90
15717;DHT22;7960;50.908;4.204;2022-07-23T04:56:31;15.90;99.90
15717;DHT22;7960;50.908;4.204;2022-07-23T04:58:58;16.00;99.90
15717;DHT22;7960;50.908;4.204;2022-07-23T05:01:24;16.00;99.90
15717;DHT22;7960;50.908;4.204;2022-07-23T05:03:51;16.00;99.90
15717;DHT22;7960;50.908;4.204;2022-07-23T05:06:20;16.00;99.90
15717;DHT22;7960;50.908;4.204;2022-07-23T05:08:47;16.00;99.90
15717;DHT22;7960;50.908;4.204;2022-07-23T05:11:14;16.20;99.90
15717;DHT22;7960;50.908;4.204;2022-07-23T05:13:41;16.20;99.90
15717;DHT22;7960;50.908;4.204;2022-07-23T05:16:08;16.30;99.90
15717;DHT22;7960;50.908;4.204;2022-07-23T05:18:35;16.30;99.90
15717;DHT22;7960;50.908;4.204;2022-07-23T05:21:02;16.50;99.90
15717;DHT22;7960;50.908;4.204;2022-07-23T05:23:30;16.50;99.90
15717;DHT22;7960;50.908;4.204;2022-07-23T05:25:57;16.50;99.90
15717;DHT22;7960;50.908;4.204;2022-07-23T05:28:24;16.60;99.90
15717;DHT22;7960;50.908;4.204;2022-07-23T05:30:51;16.50;99.90
15717;DHT22;7960;50.908;4.204;2022-07-23T05:33:18;16.50;99.90
15717;DHT22;7960;50.908;4.204;2022-07-23T05:35:46;16.50;99.90
15717;DHT22;7960;50.908;4.204;2022-07-23T05:38:12;16.40;99.90
15717;DHT22;7960;50.908;4.204;2022-07-23T05:40:41;16.50;99.90
15717;DHT22;7960;50.908;4.204;2022-07-23T05:43:08;16.40;99.90
15717;DHT22;7960;50.908;4.204;2022-07-23T05:45:35;16.50;99.90
15717;DHT22;7960;50.908;4.204;2022-07-23T05:48:01;16.60;99.90
15717;DHT22;7960;50.908;4.204;2022-07-23T05:50:29;16.40;99.90
15717;DHT22;7960;50.908;4.204;2022-07-23T05:52:56;16.40;99.90
15717;DHT22;7960;50.908;4.204;2022-07-23T05:55:22;16.50;99.90
15717;DHT22;7960;50.908;4.204;2022-07-23T05:57:54;16.70;99.90
15717;DHT22;7960;50.908;4.204;2022-07-23T06:00:21;16.60;99.90
15717;DHT22;7960;50.908;4.204;2022-07-23T06:02:47;16.60;99.90
15717;DHT22;7960;50.908;4.204;2022-07-23T06:05:14;16.70;99.90
15717;DHT22;7960;50.908;4.204;2022-07-23T06:07:41;16.90;99.90
15717;DHT22;7960;50.908;4.204;2022-07-23T06:10:08;16.90;99.90
15717;DHT22;7960;50.908;4.204;2022-07-23T06:12:36;17.00;99.90
15717;DHT22;7960;50.908;4.204;2022-07-23T06:15:05;16.90;99.90
15717;DHT22;7960;50.908;4.204;2022-07-23T06:17:32;16.90;99.90
15717;DHT22;7960;50.908;4.204;2022-07-23T06:20:05;16.90;99.90
15717;DHT22;7960;50.908;4.204;2022-07-23T06:22:32;17.00;99.90
15717;DHT22;7960;50.908;4.204;2022-07-23T06:24:59;17.10;99.90
15717;DHT22;7960;50.908;4.204;2022-07-23T06:27:26;17.20;99.90
15717;DHT22;7960;50.908;4.204;2022-07-23T06:29:53;17.10;99.90
15717;DHT22;7960;50.908;4.204;2022-07-23T06:32:21;17.10;99.90
15717;DHT22;7960;50.908;4.204;2022-07-23T06:34:48;17.10;99.90
15717;DHT22;7960;50.908;4.204;2022-07-23T06:37:15;17.10;99.90
15717;DHT22;7960;50.908;4.204;2022-07-23T06:39:42;17.10;99.90
15717;DHT22;7960;50.908;4.204;2022-07-23T06:42:09;17.20;99.90
15717;DHT22;7960;50.908;4.204;2022-07-23T06:44:37;17.40;99.90
15717;DHT22;7960;50.908;4.204;2022-07-23T06:47:04;17.60;99.90
15717;DHT22;7960;50.908;4.204;2022-07-23T06:49:32;17.60;99.90
15717;DHT22;7960;50.908;4.204;2022-07-23T06:51:59;17.70;99.90
15717;DHT22;7960;50.908;4.204;2022-07-23T06:54:26;17.70;99.90
15717;DHT22;7960;50.908;4.204;2022-07-23T06:56:53;17.70;99.90
15717;DHT22;7960;50.908;4.204;2022-07-23T06:59:20;17.80;99.90
15717;DHT22;7960;50.908;4.204;2022-07-23T07:01:47;17.90;99.90
15717;DHT22;7960;50.908;4.204;2022-07-23T07:04:14;17.90;99.90
15717;DHT22;7960;50.908;4.204;2022-07-23T07:06:42;18.10;99.90
15717;DHT22;7960;50.908;4.204;2022-07-23T07:09:09;18.10;99.90
15717;DHT22;7960;50.908;4.204;2022-07-23T07:11:36;18.10;99.90
15717;DHT22;7960;50.908;4.204;2022-07-23T07:14:02;18.30;99.90
15717;DHT22;7960;50.908;4.204;2022-07-23T07:16:30;18.30;99.90
15717;DHT22;7960;50.908;4.204;2022-07-23T07:18:57;18.60;99.90
15717;DHT22;7960;50.908;4.204;2022-07-23T07:21:24;18.60;99.90
15717;DHT22;7960;50.908;4.204;2022-07-23T07:23:52;18.60;99.90
15717;DHT22;7960;50.908;4.204;2022-07-23T07:26:19;18.60;99.90
15717;DHT22;7960;50.908;4.204;2022-07-23T07:28:46;18.50;99.90
15717;DHT22;7960;50.908;4.204;2022-07-23T07:31:13;18.70;99.90
15717;DHT22;7960;50.908;4.204;2022-07-23T07:33:40;18.90;99.90
15717;DHT22;7960;50.908;4.204;2022-07-23T07:36:07;18.90;99.90
15717;DHT22;7960;50.908;4.204;2022-07-23T07:38:34;19.00;99.90
15717;DHT22;7960;50.908;4.204;2022-07-23T07:41:02;19.00;99.90
15717;DHT22;7960;50.908;4.204;2022-07-23T07:43:29;19.00;99.90
15717;DHT22;7960;50.908;4.204;2022-07-23T07:45:56;19.10;99.90
15717;DHT22;7960;50.908;4.204;2022-07-23T07:48:23;19.30;99.90
15717;DHT22;7960;50.908;4.204;2022-07-23T07:50:50;19.30;99.90
15717;DHT22;7960;50.908;4.204;2022-07-23T07:53:17;19.50;99.90
15717;DHT22;7960;50.908;4.204;2022-07-23T07:55:43;19.40;99.90
15717;DHT22;7960;50.908;4.204;2022-07-23T07:58:12;19.40;99.90
15717;DHT22;7960;50.908;4.204;2022-07-23T08:00:39;19.60;99.90
15717;DHT22;7960;50.908;4.204;2022-07-23T08:03:06;19.70;99.90
15717;DHT22;7960;50.908;4.204;2022-07-23T08:05:33;19.90;99.90
15717;DHT22;7960;50.908;4.204;2022-07-23T08:08:00;19.70;99.90
15717;DHT22;7960;50.908;4.204;2022-07-23T08:10:27;19.80;99.90
15717;DHT22;7960;50.908;4.204;2022-07-23T08:12:55;19.80;99.90
15717;DHT22;7960;50.908;4.204;2022-07-23T08:15:26;19.80;99.90
15717;DHT22;7960;50.908;4.204;2022-07-23T08:17:53;19.90;99.90
15717;DHT22;7960;50.908;4.204;2022-07-23T08:20:21;20.00;99.90
15717;DHT22;7960;50.908;4.204;2022-07-23T08:22:50;20.10;99.90
15717;DHT22;7960;50.908;4.204;2022-07-23T08:25:21;20.20;99.90
15717;DHT22;7960;50.908;4.204;2022-07-23T08:27:48;20.30;99.90
15717;DHT22;7960;50.908;4.204;2022-07-23T08:30:16;20.30;99.90
15717;DHT22;7960;50.908;4.204;2022-07-23T08:32:56;20.50;99.90
15717;DHT22;7960;50.908;4.204;2022-07-23T08:35:27;20.50;99.90
15717;DHT22;7960;50.908;4.204;2022-07-23T08:37:54;20.50;99.90
15717;DHT22;7960;50.908;4.204;2022-07-23T08:40:22;20.60;99.90
15717;DHT22;7960;50.908;4.204;2022-07-23T08:42:50;20.70;99.90
15717;DHT22;7960;50.908;4.204;2022-07-23T08:45:19;20.90;99.90
15717;DHT22;7960;50.908;4.204;2022-07-23T08:47:49;20.80;99.90
15717;DHT22;7960;50.908;4.204;2022-07-23T08:50:18;20.80;99.90
15717;DHT22;7960;50.908;4.204;2022-07-23T08:52:49;20.90;99.90
15717;DHT22;7960;50.908;4.204;2022-07-23T08:55:16;21.00;99.90
15717;DHT22;7960;50.908;4.204;2022-07-23T08:57:44;20.90;99.90
15717;DHT22;7960;50.908;4.204;2022-07-23T09:00:12;20.90;99.90
15717;DHT22;7960;50.908;4.204;2022-07-23T09:02:40;21.00;99.90
15717;DHT22;7960;50.908;4.204;2022-07-23T09:05:08;20.90;99.90
15717;DHT22;7960;50.908;4.204;2022-07-23T09:07:38;21.20;99.90
15717;DHT22;7960;50.908;4.204;2022-07-23T09:10:25;21.20;99.90
15717;DHT22;7960;50.908;4.204;2022-07-23T09:12:52;21.20;99.90
15717;DHT22;7960;50.908;4.204;2022-07-23T09:15:18;21.50;99.90
15717;DHT22;7960;50.908;4.204;2022-07-23T09:17:45;21.70;99.90
15717;DHT22;7960;50.908;4.204;2022-07-23T09:20:14;21.70;99.90
15717;DHT22;7960;50.908;4.204;2022-07-23T09:22:45;21.90;99.90
15717;DHT22;7960;50.908;4.204;2022-07-23T09:25:14;22.00;99.90
15717;DHT22;7960;50.908;4.204;2022-07-23T09:27:53;21.90;99.90
15717;DHT22;7960;50.908;4.204;2022-07-23T09:30:22;22.00;99.90
15717;DHT22;7960;50.908;4.204;2022-07-23T09:33:10;21.90;99.90
15717;DHT22;7960;50.908;4.204;2022-07-23T09:35:48;22.20;99.90
15717;DHT22;7960;50.908;4.204;2022-07-23T09:38:17;22.30;99.90
15717;DHT22;7960;50.908;4.204;2022-07-23T09:40:45;22.30;99.90
15717;DHT22;7960;50.908;4.204;2022-07-23T09:43:12;22.40;99.90
15717;DHT22;7960;50.908;4.204;2022-07-23T09:45:39;22.60;99.90
15717;DHT22;7960;50.908;4.204;2022-07-23T09:48:13;22.80;99.90
15717;DHT22;7960;50.908;4.204;2022-07-23T09:50:41;23.10;99.90
15717;DHT22;7960;50.908;4.204;2022-07-23T09:53:10;23.10;99.90
15717;DHT22;7960;50.908;4.204;2022-07-23T09:55:51;23.10;99.90
15717;DHT22;7960;50.908;4.204;2022-07-23T09:58:22;23.20;99.90
15717;DHT22;7960;50.908;4.204;2022-07-23T10:00:52;23.30;99.90
15717;DHT22;7960;50.908;4.204;2022-07-23T10:03:19;23.30;99.90
15717;DHT22;7960;50.908;4.204;2022-07-23T10:05:47;23.50;99.90
15717;DHT22;7960;50.908;4.204;2022-07-23T10:08:18;23.20;99.90
15717;DHT22;7960;50.908;4.204;2022-07-23T10:10:46;23.40;99.90
15717;DHT22;7960;50.908;4.204;2022-07-23T10:13:15;23.60;99.90
15717;DHT22;7960;50.908;4.204;2022-07-23T10:15:56;23.80;99.90
15717;DHT22;7960;50.908;4.204;2022-07-23T10:18:23;23.90;99.90
15717;DHT22;7960;50.908;4.204;2022-07-23T10:20:51;24.10;99.90
15717;DHT22;7960;50.908;4.204;2022-07-23T10:23:24;24.40;99.90
15717;DHT22;7960;50.908;4.204;2022-07-23T10:25:59;24.20;99.90
15717;DHT22;7960;50.908;4.204;2022-07-23T10:28:47;23.40;99.90
15717;DHT22;7960;50.908;4.204;2022-07-23T10:31:25;23.50;99.90
15717;DHT22;7960;50.908;4.204;2022-07-23T10:34:00;24.00;99.90
15717;DHT22;7960;50.908;4.204;2022-07-23T10:36:35;24.40;99.90
15717;DHT22;7960;50.908;4.204;2022-07-23T10:39:11;23.90;99.90
15717;DHT22;7960;50.908;4.204;2022-07-23T10:41:40;23.80;99.90
15717;DHT22;7960;50.908;4.204;2022-07-23T10:44:11;24.20;99.90
15717;DHT22;7960;50.908;4.204;2022-07-23T10:47:02;24.40;99.90
15717;DHT22;7960;50.908;4.204;2022-07-23T10:49:35;24.70;99.90
15717;DHT22;7960;50.908;4.204;2022-07-23T10:52:22;24.50;99.90
15717;DHT22;7960;50.908;4.204;2022-07-23T10:54:51;24.40;99.90
15717;DHT22;7960;50.908;4.204;2022-07-23T10:57:19;24.70;99.90
15717;DHT22;7960;50.908;4.204;2022-07-23T11:02:50;25.40;99.90
15717;DHT22;7960;50.908;4.204;2022-07-23T11:05:19;25.40;99.90
15717;DHT22;7960;50.908;4.204;2022-07-23T11:08:11;25.50;99.90
15717;DHT22;7960;50.908;4.204;2022-07-23T11:10:42;25.60;99.90
15717;DHT22;7960;50.908;4.204;2022-07-23T11:13:29;25.30;99.90
15717;DHT22;7960;50.908;4.204;2022-07-23T11:16:16;25.20;99.90
15717;DHT22;7960;50.908;4.204;2022-07-23T11:19:08;25.50;99.90
15717;DHT22;7960;50.908;4.204;2022-07-23T11:21:50;25.50;99.90
15717;DHT22;7960;50.908;4.204;2022-07-23T11:24:22;25.80;99.90
15717;DHT22;7960;50.908;4.204;2022-07-23T11:26:55;25.60;99.90
15717;DHT22;7960;50.908;4.204;2022-07-23T11:29:45;25.70;99.90
15717;DHT22;7960;50.908;4.204;2022-07-23T11:35:23;25.90;99.90
15717;DHT22;7960;50.908;4.204;2022-07-23T11:37:51;26.00;99.90
15717;DHT22;7960;50.908;4.204;2022-07-23T11:40:24;26.30;99.90
15717;DHT22;7960;50.908;4.204;2022-07-23T11:42:53;26.60;99.90
15717;DHT22;7960;50.908;4.204;2022-07-23T11:45:20;26.30;99.90
15717;DHT22;7960;50.908;4.204;2022-07-23T11:47:47;25.90;99.90
15717;DHT22;7960;50.908;4.204;2022-07-23T11:50:13;26.30;99.90
15717;DHT22;7960;50.908;4.204;2022-07-23T11:52:42;26.60;99.90
15717;DHT22;7960;50.908;4.204;2022-07-23T11:55:10;26.60;99.90
15717;DHT22;7960;50.908;4.204;2022-07-23T11:57:39;26.60;99.90
15717;DHT22;7960;50.908;4.204;2022-07-23T12:00:09;26.70;99.90
15717;DHT22;7960;50.908;4.204;2022-07-23T12:02:36;26.60;99.90
15717;DHT22;7960;50.908;4.204;2022-07-23T12:05:04;26.40;99.90
15717;DHT22;7960;50.908;4.204;2022-07-23T12:07:32;26.20;99.90
15717;DHT22;7960;50.908;4.204;2022-07-23T12:10:03;25.90;99.90
15717;DHT22;7960;50.908;4.204;2022-07-23T12:12:36;26.30;99.90
15717;DHT22;7960;50.908;4.204;2022-07-23T12:15:04;26.60;99.90
15717;DHT22;7960;50.908;4.204;2022-07-23T12:17:32;26.90;99.90
15717;DHT22;7960;50.908;4.204;2022-07-23T12:20:00;27.20;99.90
15717;DHT22;7960;50.908;4.204;2022-07-23T12:22:34;27.60;99.90
15717;DHT22;7960;50.908;4.204;2022-07-23T12:25:06;27.70;99.90
15717;DHT22;7960;50.908;4.204;2022-07-23T12:27:34;26.80;99.60
15717;DHT22;7960;50.908;4.204;2022-07-23T12:30:15;26.40;99.90
15717;DHT22;7960;50.908;4.204;2022-07-23T12:32:43;26.50;99.90
15717;DHT22;7960;50.908;4.204;2022-07-23T12:35:12;26.50;99.90
15717;DHT22;7960;50.908;4.204;2022-07-23T12:37:41;26.90;99.90
15717;DHT22;7960;50.908;4.204;2022-07-23T12:40:27;27.20;99.90
15717;DHT22;7960;50.908;4.204;2022-07-23T12:42:57;27.00;99.30
15717;DHT22;7960;50.908;4.204;2022-07-23T12:45:24;27.10;99.50
15717;DHT22;7960;50.908;4.204;2022-07-23T12:48:03;27.20;99.10
15717;DHT22;7960;50.908;4.204;2022-07-23T12:50:58;27.20;99.50
15717;DHT22;7960;50.908;4.204;2022-07-23T12:53:28;27.90;99.30
15717;DHT22;7960;50.908;4.204;2022-07-23T12:56:02;28.10;97.70
15717;DHT22;7960;50.908;4.204;2022-07-23T12:58:40;28.30;98.20
15717;DHT22;7960;50.908;4.204;2022-07-23T13:01:07;28.10;97.30
15717;DHT22;7960;50.908;4.204;2022-07-23T13:03:37;28.20;98.00
15717;DHT22;7960;50.908;4.204;2022-07-23T13:06:06;28.50;97.60
15717;DHT22;7960;50.908;4.204;2022-07-23T13:08:36;28.60;96.70
15717;DHT22;7960;50.908;4.204;2022-07-23T13:11:05;28.30;96.60
15717;DHT22;7960;50.908;4.204;2022-07-23T13:13:33;27.90;97.50
15717;DHT22;7960;50.908;4.204;2022-07-23T13:16:01;28.10;97.00
15717;DHT22;7960;50.908;4.204;2022-07-23T13:18:28;28.10;96.90
15717;DHT22;7960;50.908;4.204;2022-07-23T13:20:55;28.60;96.50
15717;DHT22;7960;50.908;4.204;2022-07-23T13:23:22;28.60;95.90
15717;DHT22;7960;50.908;4.204;2022-07-23T13:25:49;28.30;95.70
15717;DHT22;7960;50.908;4.204;2022-07-23T13:28:19;28.30;96.40
15717;DHT22;7960;50.908;4.204;2022-07-23T13:30:46;28.60;96.20
15717;DHT22;7960;50.908;4.204;2022-07-23T13:33:15;29.10;95.80
15717;DHT22;7960;50.908;4.204;2022-07-23T13:35:42;29.30;95.50
15717;DHT22;7960;50.908;4.204;2022-07-23T13:38:09;29.70;94.80
15717;DHT22;7960;50.908;4.204;2022-07-23T13:40:37;29.80;94.50
15717;DHT22;7960;50.908;4.204;2022-07-23T13:43:06;29.60;93.90
15717;DHT22;7960;50.908;4.204;2022-07-23T13:45:37;29.40;94.20
15717;DHT22;7960;50.908;4.204;2022-07-23T13:48:05;29.10;94.70
15717;DHT22;7960;50.908;4.204;2022-07-23T13:50:32;29.30;94.20
15717;DHT22;7960;50.908;4.204;2022-07-23T13:53:01;29.50;94.00
15717;DHT22;7960;50.908;4.204;2022-07-23T13:55:28;29.70;93.40
15717;DHT22;7960;50.908;4.204;2022-07-23T13:57:55;29.50;93.30
15717;DHT22;7960;50.908;4.204;2022-07-23T14:00:22;29.60;93.80
15717;DHT22;7960;50.908;4.204;2022-07-23T14:02:50;29.30;93.60
15717;DHT22;7960;50.908;4.204;2022-07-23T14:05:17;29.40;93.70
15717;DHT22;7960;50.908;4.204;2022-07-23T14:07:44;29.90;93.80
15717;DHT22;7960;50.908;4.204;2022-07-23T14:10:12;30.10;93.00
15717;DHT22;7960;50.908;4.204;2022-07-23T14:12:39;29.60;92.60
15717;DHT22;7960;50.908;4.204;2022-07-23T14:15:07;29.40;93.60
15717;DHT22;7960;50.908;4.204;2022-07-23T14:17:35;28.80;93.80
15717;DHT22;7960;50.908;4.204;2022-07-23T14:20:05;29.10;94.00
15717;DHT22;7960;50.908;4.204;2022-07-23T14:22:33;28.80;93.80
15717;DHT22;7960;50.908;4.204;2022-07-23T14:25:00;28.60;93.80
15717;DHT22;7960;50.908;4.204;2022-07-23T14:27:28;28.10;94.10
15717;DHT22;7960;50.908;4.204;2022-07-23T14:29:55;28.20;94.70
15717;DHT22;7960;50.908;4.204;2022-07-23T14:32:23;29.10;95.00
15717;DHT22;7960;50.908;4.204;2022-07-23T14:34:50;29.90;93.90
15717;DHT22;7960;50.908;4.204;2022-07-23T14:37:19;30.30;93.00
15717;DHT22;7960;50.908;4.204;2022-07-23T14:39:46;30.60;92.10
15717;DHT22;7960;50.908;4.204;2022-07-23T14:42:13;29.90;92.40
15717;DHT22;7960;50.908;4.204;2022-07-23T14:44:40;29.80;92.50
15717;DHT22;7960;50.908;4.204;2022-07-23T14:47:08;29.70;92.40
15717;DHT22;7960;50.908;4.204;2022-07-23T14:49:35;29.60;92.60
15717;DHT22;7960;50.908;4.204;2022-07-23T14:52:03;29.90;92.70
15717;DHT22;7960;50.908;4.204;2022-07-23T14:54:32;29.70;93.40
15717;DHT22;7960;50.908;4.204;2022-07-23T14:57:00;29.70;92.50
15717;DHT22;7960;50.908;4.204;2022-07-23T14:59:28;29.70;92.60
15717;DHT22;7960;50.908;4.204;2022-07-23T15:01:57;30.10;92.30
15717;DHT22;7960;50.908;4.204;2022-07-23T15:04:24;30.40;92.30
15717;DHT22;7960;50.908;4.204;2022-07-23T15:06:51;30.60;91.60
15717;DHT22;7960;50.908;4.204;2022-07-23T15:09:18;30.60;91.80
15717;DHT22;7960;50.908;4.204;2022-07-23T15:11:46;30.20;91.50
15717;DHT22;7960;50.908;4.204;2022-07-23T15:14:13;29.70;91.80
15717;DHT22;7960;50.908;4.204;2022-07-23T15:16:40;29.40;92.20
15717;DHT22;7960;50.908;4.204;2022-07-23T15:19:07;29.30;92.60
15717;DHT22;7960;50.908;4.204;2022-07-23T15:21:34;29.70;92.20
15717;DHT22;7960;50.908;4.204;2022-07-23T15:24:01;30.10;91.80
15717;DHT22;7960;50.908;4.204;2022-07-23T15:26:29;30.30;91.60
15717;DHT22;7960;50.908;4.204;2022-07-23T15:28:57;30.30;90.90
15717;DHT22;7960;50.908;4.204;2022-07-23T15:31:25;29.90;91.40
15717;DHT22;7960;50.908;4.204;2022-07-23T15:33:52;30.10;91.80
15717;DHT22;7960;50.908;4.204;2022-07-23T15:36:19;29.50;91.70
15717;DHT22;7960;50.908;4.204;2022-07-23T15:38:47;29.30;92.30
15717;DHT22;7960;50.908;4.204;2022-07-23T15:41:14;29.40;92.70
15717;DHT22;7960;50.908;4.204;2022-07-23T15:43:41;29.70;92.60
15717;DHT22;7960;50.908;4.204;2022-07-23T15:46:09;30.40;92.00
15717;DHT22;7960;50.908;4.204;2022-07-23T15:48:37;30.40;91.10
15717;DHT22;7960;50.908;4.204;2022-07-23T15:51:05;30.20;91.10
15717;DHT22;7960;50.908;4.204;2022-07-23T15:53:32;30.00;91.80
15717;DHT22;7960;50.908;4.204;2022-07-23T15:56:00;30.20;92.00
15717;DHT22;7960;50.908;4.204;2022-07-23T15:58:27;30.40;91.90
15717;DHT22;7960;50.908;4.204;2022-07-23T16:00:55;30.50;91.20